sensor_id;sensor_type;location;lat;lon;timestamp;temperature;humidity
20690;DHT22;10504;48.762;8.996;2024-02-15T00:02:15;8.90;99.90
20690;DHT22;10504;48.762;8.996;2024-02-15T00:04:40;8.90;99.90
20690;DHT22;10504;48.762;8.996;2024-02-15T00:07:08;8.90;99.90
20690;DHT22;10504;48.762;8.996;2024-02-15T00:09:34;8.90;99.90
20690;DHT22;10504;48.762;8.996;2024-02-15T00:12:00;8.90;99.90
20690;DHT22;10504;48.762;8.996;2024-02-15T00:14:26;8.90;99.90
20690;DHT22;10504;48.762;8.996;2024-02-15T00:16:53;8.90;99.90
20690;DHT22;10504;48.762;8.996;2024-02-15T00:19:19;8.90;99.90
20690;DHT22;10504;48.762;8.996;2024-02-15T00:21:44;8.90;99.90
20690;DHT22;10504;48.762;8.996;2024-02-15T00:24:10;8.90;99.90
20690;DHT22;10504;48.762;8.996;2024-02-15T00:26:36;9.00;99.90
20690;DHT22;10504;48.762;8.996;2024-02-15T00:29:01;8.90;99.90
20690;DHT22;10504;48.762;8.996;2024-02-15T00:31:27;9.00;99.90
20690;DHT22;10504;48.762;8.996;2024-02-15T00:33:53;8.90;99.90
20690;DHT22;10504;48.762;8.996;2024-02-15T00:36:19;8.90;99.90
20690;DHT22;10504;48.762;8.996;2024-02-15T00:38:45;8.90;99.90
20690;DHT22;10504;48.762;8.996;2024-02-15T00:41:10;8.90;99.90
20690;DHT22;10504;48.762;8.996;2024-02-15T00:43:36;8.90;99.90
20690;DHT22;10504;48.762;8.996;2024-02-15T00:46:02;8.90;99.90
20690;DHT22;10504;48.762;8.996;2024-02-15T00:48:28;8.80;99.90
20690;DHT22;10504;48.762;8.996;2024-02-15T00:50:58;8.80;99.90
20690;DHT22;10504;48.762;8.996;2024-02-15T00:53:24;8.70;99.90
20690;DHT22;10504;48.762;8.996;2024-02-15T00:55:50;8.70;99.90
20690;DHT22;10504;48.762;8.996;2024-02-15T00:58:15;8.70;99.90
20690;DHT22;10504;48.762;8.996;2024-02-15T01:00:41;8.70;99.90
20690;DHT22;10504;48.762;8.996;2024-02-15T01:03:06;8.60;99.90
20690;DHT22;10504;48.762;8.996;2024-02-15T01:05:32;8.60;99.90
20690;DHT22;10504;48.762;8.996;2024-02-15T01:07:59;8.60;99.90
20690;DHT22;10504;48.762;8.996;2024-02-15T01:10:24;8.60;99.90
20690;DHT22;10504;48.762;8.996;2024-02-15T01:12:52;8.60;99.90
20690;DHT22;10504;48.762;8.996;2024-02-15T01:15:17;8.60;99.90
20690;DHT22;10504;48.762;8.996;2024-02-15T01:17:45;8.60;99.90
20690;DHT22;10504;48.762;8.996;2024-02-15T01:20:11;8.50;99.90
20690;DHT22;10504;48.762;8.996;2024-02-15T01:22:36;8.50;99.90
20690;DHT22;10504;48.762;8.996;2024-02-15T01:25:02;8.50;99.90
20690;DHT22;10504;48.762;8.996;2024-02-15T01:27:28;8.40;99.90
20690;DHT22;10504;48.762;8.996;2024-02-15T01:29:57;8.40;99.90
20690;DHT22;10504;48.762;8.996;2024-02-15T01:32:23;8.40;99.90
20690;DHT22;10504;48.762;8.996;2024-02-15T01:34:48;8.40;99.90
20690;DHT22;10504;48.762;8.996;2024-02-15T01:37:16;8.40;99.90
20690;DHT22;10504;48.762;8.996;2024-02-15T01:39:42;8.30;99.90
20690;DHT22;10504;48.762;8.996;2024-02-15T01:42:08;8.30;99.90
20690;DHT22;10504;48.762;8.996;2024-02-15T01:44:34;8.30;99.90
20690;DHT22;10504;48.762;8.996;2024-02-15T01:47:02;8.30;99.90
20690;DHT22;10504;48.762;8.996;2024-02-15T01:49:29;8.30;99.90
20690;DHT22;10504;48.762;8.996;2024-02-15T01:51:56;8.20;99.90
20690;DHT22;10504;48.762;8.996;2024-02-15T01:54:23;8.20;99.90
20690;DHT22;10504;48.762;8.996;2024-02-15T01:56:50;8.20;99.90
20690;DHT22;10504;48.762;8.996;2024-02-15T01:59:16;8.20;99.90
20690;DHT22;10504;48.762;8.996;2024-02-15T02:01:42;8.10;99.90
20690;DHT22;10504;48.762;8.996;2024-02-15T02:04:09;8.10;99.90
20690;DHT22;10504;48.762;8.996;2024-02-15T02:06:37;8.00;99.90
20690;DHT22;10504;48.762;8.996;2024-02-15T02:09:03;8.00;99.90
20690;DHT22;10504;48.762;8.996;2024-02-15T02:11:29;8.00;99.90
20690;DHT22;10504;48.762;8.996;2024-02-15T02:13:55;8.00;99.90
20690;DHT22;10504;48.762;8.996;2024-02-15T02:16:28;7.90;99.90
20690;DHT22;10504;48.762;8.996;2024-02-15T02:18:57;7.90;99.90
20690;DHT22;10504;48.762;8.996;2024-02-15T02:21:27;7.80;99.90
20690;DHT22;10504;48.762;8.996;2024-02-15T02:23:56;7.80;99.90
20690;DHT22;10504;48.762;8.996;2024-02-15T02:26:23;7.70;99.90
20690;DHT22;10504;48.762;8.996;2024-02-15T02:28:50;7.70;99.90
20690;DHT22;10504;48.762;8.996;2024-02-15T02:31:19;7.70;99.90
20690;DHT22;10504;48.762;8.996;2024-02-15T02:33:50;7.70;99.90
20690;DHT22;10504;48.762;8.996;2024-02-15T02:36:18;7.60;99.90
20690;DHT22;10504;48.762;8.996;2024-02-15T02:38:44;7.60;99.90
20690;DHT22;10504;48.762;8.996;2024-02-15T02:41:15;7.60;99.90
20690;DHT22;10504;48.762;8.996;2024-02-15T02:43:41;7.60;99.90
20690;DHT22;10504;48.762;8.996;2024-02-15T02:46:10;7.70;99.90
20690;DHT22;10504;48.762;8.996;2024-02-15T02:48:36;7.60;99.90
20690;DHT22;10504;48.762;8.996;2024-02-15T02:51:02;7.60;99.90
20690;DHT22;10504;48.762;8.996;2024-02-15T02:53:28;7.60;99.90
20690;DHT22;10504;48.762;8.996;2024-02-15T02:55:55;7.60;99.90
20690;DHT22;10504;48.762;8.996;2024-02-15T02:58:22;7.50;99.90
20690;DHT22;10504;48.762;8.996;2024-02-15T03:00:48;7.50;99.90
20690;DHT22;10504;48.762;8.996;2024-02-15T03:03:18;7.50;99.90
20690;DHT22;10504;48.762;8.996;2024-02-15T03:05:48;7.50;99.90
20690;DHT22;10504;48.762;8.996;2024-02-15T03:08:14;7.50;99.90
20690;DHT22;10504;48.762;8.996;2024-02-15T03:10:40;7.50;99.90
20690;DHT22;10504;48.762;8.996;2024-02-15T03:13:06;7.40;99.90
20690;DHT22;10504;48.762;8.996;2024-02-15T03:15:35;7.40;99.90
20690;DHT22;10504;48.762;8.996;2024-02-15T03:18:00;7.40;99.90
20690;DHT22;10504;48.762;8.996;2024-02-15T03:20:32;7.40;99.90
20690;DHT22;10504;48.762;8.996;2024-02-15T03:23:01;7.40;99.90
20690;DHT22;10504;48.762;8.996;2024-02-15T03:25:28;7.40;99.90
20690;DHT22;10504;48.762;8.996;2024-02-15T03:27:58;7.40;99.90
20690;DHT22;10504;48.762;8.996;2024-02-15T03:30:28;7.30;99.90
20690;DHT22;10504;48.762;8.996;2024-02-15T03:32:57;7.30;99.90
20690;DHT22;10504;48.762;8.996;2024-02-15T03:35:26;7.30;99.90
20690;DHT22;10504;48.762;8.996;2024-02-15T03:37:52;7.30;99.90
20690;DHT22;10504;48.762;8.996;2024-02-15T03:40:22;7.30;99.90
20690;DHT22;10504;48.762;8.996;2024-02-15T03:42:48;7.30;99.90
20690;DHT22;10504;48.762;8.996;2024-02-15T03:45:15;7.30;99.90
20690;DHT22;10504;48.762;8.996;2024-02-15T03:47:41;7.30;99.90
20690;DHT22;10504;48.762;8.996;2024-02-15T03:50:08;7.30;99.90
20690;DHT22;10504;48.762;8.996;2024-02-15T03:52:38;7.40;99.90
20690;DHT22;10504;48.762;8.996;2024-02-15T03:55:04;7.40;99.90
20690;DHT22;10504;48.762;8.996;2024-02-15T03:57:30;7.40;99.90
20690;DHT22;10504;48.762;8.996;2024-02-15T03:59:56;7.50;99.90
20690;DHT22;10504;48.762;8.996;2024-02-15T04:02:23;7.50;99.90
20690;DHT22;10504;48.762;8.996;2024-02-15T04:04:52;7.50;99.90
20690;DHT22;10504;48.762;8.996;2024-02-15T04:07:19;7.50;99.90
20690;DHT22;10504;48.762;8.996;2024-02-15T04:09:45;7.60;99.90
20690;DHT22;10504;48.762;8.996;2024-02-15T04:12:11;7.60;99.90
20690;DHT22;10504;48.762;8.996;2024-02-15T04:14:37;7.60;99.90
20690;DHT22;10504;48.762;8.996;2024-02-15T04:17:06;7.60;99.90
20690;DHT22;10504;48.762;8.996;2024-02-15T04:19:32;7.70;99.90
20690;DHT22;10504;48.762;8.996;2024-02-15T04:21:58;7.70;99.90
20690;DHT22;10504;48.762;8.996;2024-02-15T04:24:28;7.70;99.90
20690;DHT22;10504;48.762;8.996;2024-02-15T04:26:55;7.70;99.90
20690;DHT22;10504;48.762;8.996;2024-02-15T04:29:20;7.80;99.90
20690;DHT22;10504;48.762;8.996;2024-02-15T04:31:47;7.80;99.90
20690;DHT22;10504;48.762;8.996;2024-02-15T04:34:16;7.80;99.90
20690;DHT22;10504;48.762;8.996;2024-02-15T04:36:46;7.80;99.90
20690;DHT22;10504;48.762;8.996;2024-02-15T04:39:15;7.80;99.90
20690;DHT22;10504;48.762;8.996;2024-02-15T04:41:52;7.80;99.90
20690;DHT22;10504;48.762;8.996;2024-02-15T04:44:17;7.80;99.90
20690;DHT22;10504;48.762;8.996;2024-02-15T04:46:46;7.80;99.90
20690;DHT22;10504;48.762;8.996;2024-02-15T04:49:12;7.80;99.90
20690;DHT22;10504;48.762;8.996;2024-02-15T04:51:38;7.80;99.90
20690;DHT22;10504;48.762;8.996;2024-02-15T04:54:06;7.80;99.90
20690;DHT22;10504;48.762;8.996;2024-02-15T04:56:33;7.80;99.90
20690;DHT22;10504;48.762;8.996;2024-02-15T04:58:59;7.80;99.90
20690;DHT22;10504;48.762;8.996;2024-02-15T05:01:24;7.80;99.90
20690;DHT22;10504;48.762;8.996;2024-02-15T05:03:50;7.80;99.90
20690;DHT22;10504;48.762;8.996;2024-02-15T05:06:15;7.80;99.90
20690;DHT22;10504;48.762;8.996;2024-02-15T05:08:41;7.80;99.90
20690;DHT22;10504;48.762;8.996;2024-02-15T05:11:11;7.80;99.90
20690;DHT22;10504;48.762;8.996;2024-02-15T05:13:47;7.70;99.90
20690;DHT22;10504;48.762;8.996;2024-02-15T05:16:16;7.80;99.90
20690;DHT22;10504;48.762;8.996;2024-02-15T05:18:41;7.70;99.90
20690;DHT22;10504;48.762;8.996;2024-02-15T05:21:07;7.70;99.90
20690;DHT22;10504;48.762;8.996;2024-02-15T05:23:37;7.70;99.90
20690;DHT22;10504;48.762;8.996;2024-02-15T05:26:03;7.70;99.90
20690;DHT22;10504;48.762;8.996;2024-02-15T05:28:29;7.80;99.90
20690;DHT22;10504;48.762;8.996;2024-02-15T05:31:18;7.70;99.90
20690;DHT22;10504;48.762;8.996;2024-02-15T05:33:49;7.80;99.90
20690;DHT22;10504;48.762;8.996;2024-02-15T05:36:15;7.70;99.90
20690;DHT22;10504;48.762;8.996;2024-02-15T05:38:41;7.70;99.90
20690;DHT22;10504;48.762;8.996;2024-02-15T05:41:07;7.70;99.90
20690;DHT22;10504;48.762;8.996;2024-02-15T05:43:34;7.70;99.90
20690;DHT22;10504;48.762;8.996;2024-02-15T05:46:02;7.70;99.90
20690;DHT22;10504;48.762;8.996;2024-02-15T05:48:28;7.70;99.90
20690;DHT22;10504;48.762;8.996;2024-02-15T05:50:57;7.70;99.90
20690;DHT22;10504;48.762;8.996;2024-02-15T05:53:24;7.70;99.90
20690;DHT22;10504;48.762;8.996;2024-02-15T05:55:50;7.70;99.90
20690;DHT22;10504;48.762;8.996;2024-02-15T05:58:16;7.70;99.90
20690;DHT22;10504;48.762;8.996;2024-02-15T06:00:42;7.70;99.90
20690;DHT22;10504;48.762;8.996;2024-02-15T06:03:12;7.70;99.90
20690;DHT22;10504;48.762;8.996;2024-02-15T06:05:38;7.70;99.90
20690;DHT22;10504;48.762;8.996;2024-02-15T06:08:05;7.70;99.90
20690;DHT22;10504;48.762;8.996;2024-02-15T06:10:31;7.70;99.90
20690;DHT22;10504;48.762;8.996;2024-02-15T06:12:57;7.70;99.90
20690;DHT22;10504;48.762;8.996;2024-02-15T06:15:25;7.70;99.90
20690;DHT22;10504;48.762;8.996;2024-02-15T06:17:50;7.70;99.90
20690;DHT22;10504;48.762;8.996;2024-02-15T06:20:16;7.60;99.90
20690;DHT22;10504;48.762;8.996;2024-02-15T06:22:49;7.60;99.90
20690;DHT22;10504;48.762;8.996;2024-02-15T06:25:15;7.60;99.90
20690;DHT22;10504;48.762;8.996;2024-02-15T06:27:45;7.60;99.90
20690;DHT22;10504;48.762;8.996;2024-02-15T06:30:12;7.60;99.90
20690;DHT22;10504;48.762;8.996;2024-02-15T06:32:57;7.60;99.90
20690;DHT22;10504;48.762;8.996;2024-02-15T06:35:41;7.50;99.90
20690;DHT22;10504;48.762;8.996;2024-02-15T06:38:25;7.50;99.90
20690;DHT22;10504;48.762;8.996;2024-02-15T06:41:09;7.50;99.90
20690;DHT22;10504;48.762;8.996;2024-02-15T06:43:35;7.50;99.90
20690;DHT22;10504;48.762;8.996;2024-02-15T06:46:02;7.50;99.90
20690;DHT22;10504;48.762;8.996;2024-02-15T06:48:28;7.50;99.90
20690;DHT22;10504;48.762;8.996;2024-02-15T06:50:54;7.40;99.90
20690;DHT22;10504;48.762;8.996;2024-02-15T06:53:19;7.40;99.90
20690;DHT22;10504;48.762;8.996;2024-02-15T06:55:46;7.40;99.90
20690;DHT22;10504;48.762;8.996;2024-02-15T06:58:17;7.40;99.90
20690;DHT22;10504;48.762;8.996;2024-02-15T07:00:43;7.40;99.90
20690;DHT22;10504;48.762;8.996;2024-02-15T07:03:09;7.40;99.90
20690;DHT22;10504;48.762;8.996;2024-02-15T07:05:36;7.40;99.90
20690;DHT22;10504;48.762;8.996;2024-02-15T07:08:07;7.40;99.90
20690;DHT22;10504;48.762;8.996;2024-02-15T07:10:37;7.40;99.90
20690;DHT22;10504;48.762;8.996;2024-02-15T07:13:04;7.50;99.90
20690;DHT22;10504;48.762;8.996;2024-02-15T07:15:29;7.50;99.90
20690;DHT22;10504;48.762;8.996;2024-02-15T07:17:58;7.50;99.90
20690;DHT22;10504;48.762;8.996;2024-02-15T07:20:24;7.50;99.90
20690;DHT22;10504;48.762;8.996;2024-02-15T07:22:51;7.50;99.90
20690;DHT22;10504;48.762;8.996;2024-02-15T07:25:16;7.50;99.90
20690;DHT22;10504;48.762;8.996;2024-02-15T07:27:43;7.60;99.90
20690;DHT22;10504;48.762;8.996;2024-02-15T07:30:09;7.60;99.90
20690;DHT22;10504;48.762;8.996;2024-02-15T07:32:35;7.60;99.90
20690;DHT22;10504;48.762;8.996;2024-02-15T07:35:01;7.70;99.90
20690;DHT22;10504;48.762;8.996;2024-02-15T07:37:27;7.70;99.90
20690;DHT22;10504;48.762;8.996;2024-02-15T07:39:54;7.70;99.90
20690;DHT22;10504;48.762;8.996;2024-02-15T07:42:20;7.80;99.90
20690;DHT22;10504;48.762;8.996;2024-02-15T07:44:45;7.80;99.90
20690;DHT22;10504;48.762;8.996;2024-02-15T07:47:11;7.80;99.90
20690;DHT22;10504;48.762;8.996;2024-02-15T07:49:37;7.90;99.90
20690;DHT22;10504;48.762;8.996;2024-02-15T07:52:03;7.90;99.90
20690;DHT22;10504;48.762;8.996;2024-02-15T07:54:30;7.90;99.90
20690;DHT22;10504;48.762;8.996;2024-02-15T07:56:56;8.00;99.90
20690;DHT22;10504;48.762;8.996;2024-02-15T07:59:23;8.00;99.90
20690;DHT22;10504;48.762;8.996;2024-02-15T08:01:49;8.00;99.90
20690;DHT22;10504;48.762;8.996;2024-02-15T08:04:19;8.00;99.90
20690;DHT22;10504;48.762;8.996;2024-02-15T08:06:46;8.10;99.90
20690;DHT22;10504;48.762;8.996;2024-02-15T08:09:15;8.10;99.90
20690;DHT22;10504;48.762;8.996;2024-02-15T08:11:43;8.10;99.90
20690;DHT22;10504;48.762;8.996;2024-02-15T08:14:09;8.10;99.90
20690;DHT22;10504;48.762;8.996;2024-02-15T08:16:37;8.20;99.90
20690;DHT22;10504;48.762;8.996;2024-02-15T08:19:06;8.20;99.90
20690;DHT22;10504;48.762;8.996;2024-02-15T08:21:33;8.30;99.90
20690;DHT22;10504;48.762;8.996;2024-02-15T08:24:01;8.30;99.90
20690;DHT22;10504;48.762;8.996;2024-02-15T08:26:36;8.40;99.90
20690;DHT22;10504;48.762;8.996;2024-02-15T08:29:03;8.40;99.90
20690;DHT22;10504;48.762;8.996;2024-02-15T08:31:29;8.40;99.90
20690;DHT22;10504;48.762;8.996;2024-02-15T08:33:56;8.50;99.90
20690;DHT22;10504;48.762;8.996;2024-02-15T08:36:22;8.50;99.90
20690;DHT22;10504;48.762;8.996;2024-02-15T08:38:49;8.50;99.90
20690;DHT22;10504;48.762;8.996;2024-02-15T08:41:15;8.60;99.90
20690;DHT22;10504;48.762;8.996;2024-02-15T08:43:43;8.50;99.90
20690;DHT22;10504;48.762;8.996;2024-02-15T08:46:09;8.60;99.90
20690;DHT22;10504;48.762;8.996;2024-02-15T08:48:35;8.60;99.90
20690;DHT22;10504;48.762;8.996;2024-02-15T08:51:02;8.60;99.90
20690;DHT22;10504;48.762;8.996;2024-02-15T08:53:27;8.60;99.90
20690;DHT22;10504;48.762;8.996;2024-02-15T08:55:53;8.60;99.90
20690;DHT22;10504;48.762;8.996;2024-02-15T08:58:19;8.60;99.90
20690;DHT22;10504;48.762;8.996;2024-02-15T09:00:46;8.60;99.90
20690;DHT22;10504;48.762;8.996;2024-02-15T09:03:12;8.60;99.90
20690;DHT22;10504;48.762;8.996;2024-02-15T09:05:41;8.60;99.90
20690;DHT22;10504;48.762;8.996;2024-02-15T09:08:07;8.70;99.90
20690;DHT22;10504;48.762;8.996;2024-02-15T09:10:33;8.70;99.90
20690;DHT22;10504;48.762;8.996;2024-02-15T09:12:58;8.70;99.90
20690;DHT22;10504;48.762;8.996;2024-02-15T09:15:24;8.80;99.90
20690;DHT22;10504;48.762;8.996;2024-02-15T09:17:50;8.80;99.90
20690;DHT22;10504;48.762;8.996;2024-02-15T09:20:17;8.80;99.90
20690;DHT22;10504;48.762;8.996;2024-02-15T09:22:50;8.90;99.90
20690;DHT22;10504;48.762;8.996;2024-02-15T09:25:17;8.90;99.90
20690;DHT22;10504;48.762;8.996;2024-02-15T09:27:44;8.90;99.90
20690;DHT22;10504;48.762;8.996;2024-02-15T09:30:11;8.90;99.90
20690;DHT22;10504;48.762;8.996;2024-02-15T09:32:40;8.90;99.90
20690;DHT22;10504;48.762;8.996;2024-02-15T09:35:06;8.90;99.90
20690;DHT22;10504;48.762;8.996;2024-02-15T09:37:52;8.90;99.90
20690;DHT22;10504;48.762;8.996;2024-02-15T09:40:19;8.90;99.90
20690;DHT22;10504;48.762;8.996;2024-02-15T09:42:45;8.90;99.90
20690;DHT22;10504;48.762;8.996;2024-02-15T09:45:12;8.90;99.90
20690;DHT22;10504;48.762;8.996;2024-02-15T09:47:40;8.90;99.90
20690;DHT22;10504;48.762;8.996;2024-02-15T09:50:10;8.90;99.90
20690;DHT22;10504;48.762;8.996;2024-02-15T09:52:43;8.90;99.90
20690;DHT22;10504;48.762;8.996;2024-02-15T09:55:09;8.90;99.90
20690;DHT22;10504;48.762;8.996;2024-02-15T09:57:39;9.00;99.90
20690;DHT22;10504;48.762;8.996;2024-02-15T10:00:07;9.00;99.90
20690;DHT22;10504;48.762;8.996;2024-02-15T10:02:36;9.00;99.90
20690;DHT22;10504;48.762;8.996;2024-02-15T10:05:03;9.00;99.90
20690;DHT22;10504;48.762;8.996;2024-02-15T10:07:29;9.00;99.90
20690;DHT22;10504;48.762;8.996;2024-02-15T10:09:55;9.00;99.90
20690;DHT22;10504;48.762;8.996;2024-02-15T10:12:21;9.00;99.90
20690;DHT22;10504;48.762;8.996;2024-02-15T10:14:52;9.10;99.90
20690;DHT22;10504;48.762;8.996;2024-02-15T10:17:20;9.20;99.90
20690;DHT22;10504;48.762;8.996;2024-02-15T10:20:05;9.20;99.90
20690;DHT22;10504;48.762;8.996;2024-02-15T10:22:32;9.20;99.90
20690;DHT22;10504;48.762;8.996;2024-02-15T10:25:13;9.20;99.90
20690;DHT22;10504;48.762;8.996;2024-02-15T10:27:40;9.30;99.90
20690;DHT22;10504;48.762;8.996;2024-02-15T10:30:15;9.30;99.90
20690;DHT22;10504;48.762;8.996;2024-02-15T10:32:41;9.30;99.90
20690;DHT22;10504;48.762;8.996;2024-02-15T10:35:07;9.40;99.90
20690;DHT22;10504;48.762;8.996;2024-02-15T10:37:32;9.50;99.90
20690;DHT22;10504;48.762;8.996;2024-02-15T10:40:05;9.50;99.90
20690;DHT22;10504;48.762;8.996;2024-02-15T10:42:40;9.50;99.90
20690;DHT22;10504;48.762;8.996;2024-02-15T10:45:07;9.60;99.90
20690;DHT22;10504;48.762;8.996;2024-02-15T10:47:37;9.70;99.90
20690;DHT22;10504;48.762;8.996;2024-02-15T10:50:04;9.80;99.90
20690;DHT22;10504;48.762;8.996;2024-02-15T10:52:31;9.90;99.90
20690;DHT22;10504;48.762;8.996;2024-02-15T10:55:03;9.90;99.90
20690;DHT22;10504;48.762;8.996;2024-02-15T10:57:31;10.00;99.90
20690;DHT22;10504;48.762;8.996;2024-02-15T10:59:59;10.10;99.90
20690;DHT22;10504;48.762;8.996;2024-02-15T11:03:02;10.10;99.90
20690;DHT22;10504;48.762;8.996;2024-02-15T11:05:32;10.10;99.90
20690;DHT22;10504;48.762;8.996;2024-02-15T11:08:01;10.20;99.90
20690;DHT22;10504;48.762;8.996;2024-02-15T11:10:28;10.30;99.90
20690;DHT22;10504;48.762;8.996;2024-02-15T11:12:54;10.30;99.90
20690;DHT22;10504;48.762;8.996;2024-02-15T11:15:42;10.40;99.90
20690;DHT22;10504;48.762;8.996;2024-02-15T11:18:11;10.40;99.90
20690;DHT22;10504;48.762;8.996;2024-02-15T11:23:04;10.50;99.90
20690;DHT22;10504;48.762;8.996;2024-02-15T11:25:39;10.60;99.90
20690;DHT22;10504;48.762;8.996;2024-02-15T11:30:49;10.80;99.90
20690;DHT22;10504;48.762;8.996;2024-02-15T11:33:34;10.80;99.90
20690;DHT22;10504;48.762;8.996;2024-02-15T11:36:08;10.80;99.90
20690;DHT22;10504;48.762;8.996;2024-02-15T11:38:35;10.90;99.90
20690;DHT22;10504;48.762;8.996;2024-02-15T11:41:03;10.90;99.90
20690;DHT22;10504;48.762;8.996;2024-02-15T11:43:48;10.90;99.90
20690;DHT22;10504;48.762;8.996;2024-02-15T11:46:22;10.90;99.90
20690;DHT22;10504;48.762;8.996;2024-02-15T11:48:51;11.00;99.90
20690;DHT22;10504;48.762;8.996;2024-02-15T11:51:34;11.00;99.90
20690;DHT22;10504;48.762;8.996;2024-02-15T11:54:09;11.00;99.90
20690;DHT22;10504;48.762;8.996;2024-02-15T11:59:09;11.00;99.90
20690;DHT22;10504;48.762;8.996;2024-02-15T12:01:44;11.10;99.90
20690;DHT22;10504;48.762;8.996;2024-02-15T12:04:32;11.20;99.90
20690;DHT22;10504;48.762;8.996;2024-02-15T12:07:16;11.20;99.90
20690;DHT22;10504;48.762;8.996;2024-02-15T12:10:00;11.30;99.90
20690;DHT22;10504;48.762;8.996;2024-02-15T12:12:51;11.30;99.90
20690;DHT22;10504;48.762;8.996;2024-02-15T12:15:37;11.40;99.90
20690;DHT22;10504;48.762;8.996;2024-02-15T12:18:21;11.50;99.90
20690;DHT22;10504;48.762;8.996;2024-02-15T12:21:09;11.50;99.90
20690;DHT22;10504;48.762;8.996;2024-02-15T12:23:37;11.60;99.90
20690;DHT22;10504;48.762;8.996;2024-02-15T12:26:04;11.60;99.90
20690;DHT22;10504;48.762;8.996;2024-02-15T12:28:33;11.60;99.90
20690;DHT22;10504;48.762;8.996;2024-02-15T12:31:01;11.70;99.90
20690;DHT22;10504;48.762;8.996;2024-02-15T12:33:27;11.70;99.90
20690;DHT22;10504;48.762;8.996;2024-02-15T12:36:06;11.70;99.90
20690;DHT22;10504;48.762;8.996;2024-02-15T12:38:32;11.70;99.90
20690;DHT22;10504;48.762;8.996;2024-02-15T12:41:00;11.80;99.90
20690;DHT22;10504;48.762;8.996;2024-02-15T12:43:28;11.80;99.90
20690;DHT22;10504;48.762;8.996;2024-02-15T12:45:53;11.80;99.90
20690;DHT22;10504;48.762;8.996;2024-02-15T12:48:22;11.80;99.90
20690;DHT22;10504;48.762;8.996;2024-02-15T12:50:48;11.80;99.90
20690;DHT22;10504;48.762;8.996;2024-02-15T12:53:21;11.80;99.90
20690;DHT22;10504;48.762;8.996;2024-02-15T12:55:53;11.80;99.90
20690;DHT22;10504;48.762;8.996;2024-02-15T12:58:20;11.90;99.90
20690;DHT22;10504;48.762;8.996;2024-02-15T13:00:46;11.90;99.90
20690;DHT22;10504;48.762;8.996;2024-02-15T13:03:12;11.90;99.90
20690;DHT22;10504;48.762;8.996;2024-02-15T13:05:40;11.90;99.90
20690;DHT22;10504;48.762;8.996;2024-02-15T13:08:06;11.90;99.90
20690;DHT22;10504;48.762;8.996;2024-02-15T13:10:36;11.90;99.90
20690;DHT22;10504;48.762;8.996;2024-02-15T13:13:01;11.90;99.90
20690;DHT22;10504;48.762;8.996;2024-02-15T13:15:28;12.00;99.90
20690;DHT22;10504;48.762;8.996;2024-02-15T13:17:58;11.90;99.90
20690;DHT22;10504;48.762;8.996;2024-02-15T13:20:24;12.00;99.90
20690;DHT22;10504;48.762;8.996;2024-02-15T13:22:58;11.90;99.90
20690;DHT22;10504;48.762;8.996;2024-02-15T13:25:27;12.00;99.90
20690;DHT22;10504;48.762;8.996;2024-02-15T13:27:53;12.00;99.90
20690;DHT22;10504;48.762;8.996;2024-02-15T13:30:19;12.00;99.90
20690;DHT22;10504;48.762;8.996;2024-02-15T13:32:49;12.10;99.90
20690;DHT22;10504;48.762;8.996;2024-02-15T13:35:19;12.20;99.90
20690;DHT22;10504;48.762;8.996;2024-02-15T13:37:49;12.20;99.90
20690;DHT22;10504;48.762;8.996;2024-02-15T13:40:15;12.30;99.90
20690;DHT22;10504;48.762;8.996;2024-02-15T13:45:12;12.30;99.90
20690;DHT22;10504;48.762;8.996;2024-02-15T13:47:39;12.30;99.90
20690;DHT22;10504;48.762;8.996;2024-02-15T13:50:05;12.20;99.90
20690;DHT22;10504;48.762;8.996;2024-02-15T13:52:30;12.20;99.90
20690;DHT22;10504;48.762;8.996;2024-02-15T13:54:56;12.20;99.90
20690;DHT22;10504;48.762;8.996;2024-02-15T13:57:22;12.20;99.90
20690;DHT22;10504;48.762;8.996;2024-02-15T13:59:48;12.10;99.90
20690;DHT22;10504;48.762;8.996;2024-02-15T14:02:14;12.20;99.90
20690;DHT22;10504;48.762;8.996;2024-02-15T14:04:40;12.20;99.90
20690;DHT22;10504;48.762;8.996;2024-02-15T14:07:05;12.20;99.90
20690;DHT22;10504;48.762;8.996;2024-02-15T14:09:31;12.20;99.90
20690;DHT22;10504;48.762;8.996;2024-02-15T14:11:56;12.10;99.90
20690;DHT22;10504;48.762;8.996;2024-02-15T14:14:23;12.10;99.90
20690;DHT22;10504;48.762;8.996;2024-02-15T14:16:49;12.10;99.90
20690;DHT22;10504;48.762;8.996;2024-02-15T14:19:15;12.10;99.90
20690;DHT22;10504;48.762;8.996;2024-02-15T14:21:41;12.10;99.90
20690;DHT22;10504;48.762;8.996;2024-02-15T14:24:08;12.10;99.90
20690;DHT22;10504;48.762;8.996;2024-02-15T14:26:34;12.10;99.90
20690;DHT22;10504;48.762;8.996;2024-02-15T14:28:59;12.20;99.90
20690;DHT22;10504;48.762;8.996;2024-02-15T14:31:28;12.20;99.90
20690;DHT22;10504;48.762;8.996;2024-02-15T14:34:12;12.20;99.90
20690;DHT22;10504;48.762;8.996;2024-02-15T14:36:38;12.20;99.90
20690;DHT22;10504;48.762;8.996;2024-02-15T14:39:03;12.20;99.90
20690;DHT22;10504;48.762;8.996;2024-02-15T14:41:30;12.30;99.90
20690;DHT22;10504;48.762;8.996;2024-02-15T14:43:56;12.30;99.90
20690;DHT22;10504;48.762;8.996;2024-02-15T14:46:22;12.30;99.90
20690;DHT22;10504;48.762;8.996;2024-02-15T14:48:47;12.30;99.90
20690;DHT22;10504;48.762;8.996;2024-02-15T14:51:16;12.30;99.90
20690;DHT22;10504;48.762;8.996;2024-02-15T14:53:44;12.30;99.90
20690;DHT22;10504;48.762;8.996;2024-02-15T14:56:10;12.30;99.90
20690;DHT22;10504;48.762;8.996;2024-02-15T14:58:35;12.30;99.90
20690;DHT22;10504;48.762;8.996;2024-02-15T15:01:01;12.30;99.90
20690;DHT22;10504;48.762;8.996;2024-02-15T15:03:30;12.30;99.90
20690;DHT22;10504;48.762;8.996;2024-02-15T15:06:04;12.20;99.90
20690;DHT22;10504;48.762;8.996;2024-02-15T15:08:48;12.20;99.90
20690;DHT22;10504;48.762;8.996;2024-02-15T15:11:32;12.20;99.90
20690;DHT22;10504;48.762;8.996;2024-02-15T15:14:16;12.10;99.90
20690;DHT22;10504;48.762;8.996;2024-02-15T15:16:42;12.10;99.90
20690;DHT22;10504;48.762;8.996;2024-02-15T15:19:08;12.10;99.90
20690;DHT22;10504;48.762;8.996;2024-02-15T15:21:36;12.10;99.90
20690;DHT22;10504;48.762;8.996;2024-02-15T15:24:02;12.10;99.90
20690;DHT22;10504;48.762;8.996;2024-02-15T15:26:27;12.10;99.90
20690;DHT22;10504;48.762;8.996;2024-02-15T15:28:53;12.00;99.90
20690;DHT22;10504;48.762;8.996;2024-02-15T15:31:20;12.00;99.90
20690;DHT22;10504;48.762;8.996;2024-02-15T15:33:46;12.00;99.90
20690;DHT22;10504;48.762;8.996;2024-02-15T15:36:13;11.90;99.90
20690;DHT22;10504;48.762;8.996;2024-02-15T15:38:41;11.90;99.90
20690;DHT22;10504;48.762;8.996;2024-02-15T15:41:07;11.80;99.90
20690;DHT22;10504;48.762;8.996;2024-02-15T15:43:34;11.80;99.90
20690;DHT22;10504;48.762;8.996;2024-02-15T15:46:00;11.80;99.90
20690;DHT22;10504;48.762;8.996;2024-02-15T15:48:26;11.70;99.90
20690;DHT22;10504;48.762;8.996;2024-02-15T15:50:51;11.60;99.90
20690;DHT22;10504;48.762;8.996;2024-02-15T15:53:19;11.60;99.90
20690;DHT22;10504;48.762;8.996;2024-02-15T15:55:44;11.50;99.90
20690;DHT22;10504;48.762;8.996;2024-02-15T15:58:11;11.50;99.90
20690;DHT22;10504;48.762;8.996;2024-02-15T16:00:37;11.40;99.90